createdAt,value
2022-12-11T00:01:22.397Z,0.20
2022-12-11T00:03:50.739Z,0.20
2022-12-11T00:06:24.139Z,0.10
2022-12-11T00:08:55.533Z,0.20
2022-12-11T00:11:24.653Z,0.10
2022-12-11T00:13:52.590Z,0.20
2022-12-11T00:16:26.561Z,0.20
2022-12-11T00:18:55.821Z,0.30
2022-12-11T00:21:23.765Z,0.30
2022-12-11T00:23:51.390Z,0.30
2022-12-11T00:26:19.600Z,0.30
2022-12-11T00:28:47.878Z,0.30
2022-12-11T00:31:23.689Z,0.20
2022-12-11T00:33:52.563Z,0.20
2022-12-11T00:36:26.478Z,0.20
2022-12-11T00:38:57.117Z,0.20
2022-12-11T00:41:25.389Z,0.30
2022-12-11T00:43:53.184Z,0.20
2022-12-11T00:46:21.344Z,0.20
2022-12-11T00:48:50.350Z,0.30
2022-12-11T00:51:19.809Z,0.30
2022-12-11T00:53:48.192Z,0.30
2022-12-11T00:56:25.455Z,0.40
2022-12-11T00:58:53.555Z,0.40
2022-12-11T01:01:27.560Z,0.40
2022-12-11T01:03:59.880Z,0.40
2022-12-11T01:06:29.713Z,0.40
2022-12-11T01:09:17.243Z,0.40
2022-12-11T01:11:45.185Z,0.40
2022-12-11T01:14:13.854Z,0.40
2022-12-11T01:16:41.725Z,0.40
2022-12-11T01:19:10.016Z,0.40
2022-12-11T01:21:38.196Z,0.50
2022-12-11T01:24:07.183Z,0.50
2022-12-11T01:26:35.114Z,0.40
2022-12-11T01:29:03.693Z,0.40
2022-12-11T01:31:31.344Z,0.40
2022-12-11T01:33:58.923Z,0.40
2022-12-11T01:36:26.812Z,0.40
2022-12-11T01:38:54.622Z,0.40
2022-12-11T01:41:23.059Z,0.30
2022-12-11T01:44:31.031Z,0.30
2022-12-11T01:46:58.714Z,0.30
2022-12-11T01:49:29.787Z,0.30
2022-12-11T01:52:09.720Z,0.40
2022-12-11T01:54:37.959Z,0.40
2022-12-11T01:57:11.253Z,0.40
2022-12-11T01:59:45.879Z,0.40
2022-12-11T02:02:27.982Z,0.40
2022-12-11T02:04:55.711Z,0.40
2022-12-11T02:07:24.102Z,0.40
2022-12-11T02:09:51.988Z,0.40
2022-12-11T02:12:57.950Z,0.40
2022-12-11T02:15:48.928Z,0.50
2022-12-11T02:18:48.936Z,0.50
2022-12-11T02:21:49.511Z,0.40
2022-12-11T02:25:33.087Z,0.40
2022-12-11T02:28:55.811Z,0.40
2022-12-11T02:32:02.975Z,0.50
2022-12-11T02:34:49.402Z,0.50
2022-12-11T02:37:26.531Z,0.50
2022-12-11T02:39:57.138Z,0.50
2022-12-11T02:42:32.553Z,0.40
2022-12-11T02:45:04.939Z,0.50
2022-12-11T02:47:34.472Z,0.50
2022-12-11T02:50:11.455Z,0.50
2022-12-11T02:52:43.024Z,0.50
2022-12-11T02:55:15.702Z,0.60
2022-12-11T02:58:00.221Z,0.50
2022-12-11T03:00:28.862Z,0.50
2022-12-11T03:02:58.333Z,0.50
2022-12-11T03:05:28.015Z,0.50
2022-12-11T03:07:55.688Z,0.50
2022-12-11T03:10:24.699Z,0.60
2022-12-11T03:12:58.613Z,0.60
2022-12-11T03:16:40.947Z,0.60
2022-12-11T03:19:35.552Z,0.50
2022-12-11T03:22:34.270Z,0.40
2022-12-11T03:25:22.849Z,0.50
2022-12-11T03:28:08.484Z,0.50
2022-12-11T03:30:41.606Z,0.50
2022-12-11T03:33:40.061Z,0.40
2022-12-11T03:36:20.486Z,0.50
2022-12-11T03:39:13.763Z,0.50
2022-12-11T03:41:46.407Z,0.60
2022-12-11T03:44:16.284Z,0.60
2022-12-11T03:46:46.966Z,0.60
2022-12-11T03:49:29.459Z,0.60
2022-12-11T03:52:01.374Z,0.60
2022-12-11T03:54:30.984Z,0.60
2022-12-11T03:57:05.001Z,0.70
2022-12-11T03:59:32.628Z,0.60
2022-12-11T04:02:00.341Z,0.60
2022-12-11T04:04:28.151Z,0.60
2022-12-11T04:06:55.757Z,0.60
2022-12-11T04:09:23.334Z,0.60
2022-12-11T04:11:50.841Z,0.60
2022-12-11T04:14:36.729Z,0.60
2022-12-11T04:17:04.497Z,0.60
2022-12-11T04:19:50.910Z,0.60
2022-12-11T04:22:38.179Z,0.60
2022-12-11T04:25:08.920Z,0.60
2022-12-11T04:27:51.985Z,0.60
2022-12-11T04:30:30.772Z,0.60
2022-12-11T04:33:00.101Z,0.70
2022-12-11T04:35:28.118Z,0.70
2022-12-11T04:37:55.799Z,0.70
2022-12-11T04:40:23.780Z,0.80
2022-12-11T04:42:51.511Z,0.80
2022-12-11T04:45:19.434Z,0.80
2022-12-11T04:47:47.230Z,0.80
2022-12-11T04:50:16.919Z,0.80
2022-12-11T04:52:45.321Z,0.80
2022-12-11T04:55:13.871Z,0.80
2022-12-11T04:57:42.005Z,0.80
2022-12-11T05:00:13.731Z,0.80
2022-12-11T05:02:43.537Z,0.80
2022-12-11T05:05:12.489Z,0.80
2022-12-11T05:07:41.194Z,1.00
2022-12-11T05:10:10.262Z,1.00
2022-12-11T05:12:37.860Z,0.90
2022-12-11T05:15:06.505Z,0.90
2022-12-11T05:17:34.812Z,0.90
2022-12-11T05:20:02.542Z,0.90
2022-12-11T05:22:32.112Z,0.90
2022-12-11T05:24:59.672Z,0.90
2022-12-11T05:27:27.497Z,0.90
2022-12-11T05:29:59.355Z,0.90
2022-12-11T05:32:28.539Z,0.90
2022-12-11T05:34:56.064Z,0.90
2022-12-11T05:37:23.623Z,0.90
2022-12-11T05:39:51.219Z,0.90
2022-12-11T05:42:19.493Z,0.90
2022-12-11T05:44:51.091Z,0.90
2022-12-11T05:47:20.407Z,0.90
2022-12-11T05:49:48.099Z,0.90
2022-12-11T05:52:16.759Z,0.90
2022-12-11T05:54:44.413Z,0.90
2022-12-11T05:57:11.953Z,0.90
2022-12-11T05:59:39.771Z,0.90
2022-12-11T06:02:07.488Z,0.90
2022-12-11T06:04:35.886Z,0.90
2022-12-11T06:07:03.657Z,0.90
2022-12-11T06:09:31.253Z,0.90
2022-12-11T06:11:58.800Z,0.90
2022-12-11T06:14:26.672Z,0.90
2022-12-11T06:16:54.812Z,0.90
2022-12-11T06:19:22.563Z,0.90
2022-12-11T06:21:50.266Z,0.90
2022-12-11T06:24:17.890Z,0.90
2022-12-11T06:26:46.186Z,0.90
2022-12-11T06:29:13.793Z,1.00
2022-12-11T06:31:41.445Z,1.00
2022-12-11T06:34:12.912Z,0.90
2022-12-11T06:36:40.920Z,0.90
2022-12-11T06:39:08.726Z,1.00
2022-12-11T06:41:36.922Z,1.00
2022-12-11T06:44:04.568Z,1.00
2022-12-11T06:46:32.187Z,1.00
2022-12-11T06:48:59.813Z,1.00
2022-12-11T06:51:27.443Z,1.00
2022-12-11T06:53:57.479Z,1.00
2022-12-11T06:56:26.103Z,1.00
2022-12-11T06:58:54.020Z,1.10
2022-12-11T07:01:27.834Z,1.10
2022-12-11T07:03:59.698Z,1.10
2022-12-11T07:06:29.213Z,1.10
2022-12-11T07:08:57.615Z,1.10
2022-12-11T07:11:25.219Z,1.10
2022-12-11T07:13:53.045Z,1.10
2022-12-11T07:16:20.724Z,1.10
2022-12-11T07:18:52.654Z,1.10
2022-12-11T07:21:21.954Z,1.00
2022-12-11T07:23:50.919Z,1.10
2022-12-11T07:26:22.385Z,1.00
2022-12-11T07:28:51.211Z,0.90
2022-12-11T07:31:25.311Z,1.00
2022-12-11T07:34:05.885Z,1.00
2022-12-11T07:36:35.536Z,1.00
2022-12-11T07:39:03.708Z,1.00
2022-12-11T07:41:32.018Z,1.00
2022-12-11T07:44:01.440Z,1.00
2022-12-11T07:46:33.733Z,1.00
2022-12-11T07:49:01.797Z,1.00
2022-12-11T07:51:37.972Z,1.00
2022-12-11T07:54:16.450Z,1.00
2022-12-11T07:56:53.255Z,1.00
2022-12-11T07:59:21.702Z,1.00
2022-12-11T08:01:49.500Z,1.00
2022-12-11T08:04:17.159Z,1.00
2022-12-11T08:06:45.465Z,1.00
2022-12-11T08:09:20.970Z,1.00
2022-12-11T08:11:52.869Z,1.10
2022-12-11T08:14:20.976Z,1.10
2022-12-11T08:16:50.025Z,1.20
2022-12-11T08:19:18.522Z,1.20
2022-12-11T08:21:46.875Z,1.20
2022-12-11T08:24:16.558Z,1.10
2022-12-11T08:26:45.399Z,1.10
2022-12-11T08:29:13.561Z,1.10
2022-12-11T08:31:42.565Z,1.10
2022-12-11T08:34:13.914Z,1.10
2022-12-11T08:36:42.148Z,1.10
2022-12-11T08:39:09.867Z,1.10
2022-12-11T08:41:38.438Z,1.10
2022-12-11T08:44:15.999Z,1.10
2022-12-11T08:46:45.077Z,1.10
2022-12-11T08:49:12.654Z,1.10
2022-12-11T08:51:40.311Z,1.10
2022-12-11T08:54:09.353Z,1.10
2022-12-11T08:56:37.059Z,1.10
2022-12-11T08:59:06.356Z,1.10
2022-12-11T09:01:34.475Z,1.10
2022-12-11T09:04:02.403Z,1.10
2022-12-11T09:06:33.567Z,1.10
2022-12-11T09:09:03.691Z,1.10
2022-12-11T09:11:37.772Z,1.10
2022-12-11T09:14:07.970Z,1.10
2022-12-11T09:16:40.832Z,1.10
2022-12-11T09:19:15.166Z,1.10
2022-12-11T09:21:45.334Z,1.10
2022-12-11T09:24:15.106Z,1.20
2022-12-11T09:26:43.072Z,1.20
2022-12-11T09:29:12.516Z,1.20
2022-12-11T09:31:40.336Z,1.20
2022-12-11T09:34:14.379Z,1.30
2022-12-11T09:36:44.388Z,1.20
2022-12-11T09:39:16.497Z,1.20
2022-12-11T09:42:08.078Z,1.20
2022-12-11T09:44:51.422Z,1.30
2022-12-11T09:47:44.409Z,1.30
2022-12-11T09:50:24.327Z,1.40
2022-12-11T09:53:18.903Z,1.30
2022-12-11T09:56:25.791Z,1.30
2022-12-11T10:00:04.431Z,1.30
2022-12-11T10:03:25.074Z,1.30
2022-12-11T10:06:32.565Z,1.30
2022-12-11T10:09:44.980Z,1.30
2022-12-11T10:13:10.818Z,1.30
2022-12-11T10:16:12.363Z,1.40
2022-12-11T10:18:41.718Z,1.50
2022-12-11T10:21:12.272Z,1.40
2022-12-11T10:24:02.733Z,1.40
2022-12-11T10:26:30.990Z,1.40
2022-12-11T10:29:02.864Z,1.50
2022-12-11T10:31:58.406Z,1.40
2022-12-11T10:34:40.194Z,1.40
2022-12-11T10:37:07.773Z,1.40
2022-12-11T10:39:35.404Z,1.20
2022-12-11T10:42:22.754Z,1.20
2022-12-11T10:45:19.621Z,1.20
2022-12-11T10:47:47.245Z,1.10
2022-12-11T10:50:27.479Z,1.10
2022-12-11T10:52:57.372Z,1.10
2022-12-11T10:55:51.612Z,1.10
2022-12-11T10:58:28.535Z,1.20
2022-12-11T11:01:29.547Z,1.30
2022-12-11T11:04:18.936Z,1.30
2022-12-11T11:06:46.595Z,1.30
2022-12-11T11:09:36.731Z,1.30
2022-12-11T11:12:08.047Z,1.40
2022-12-11T11:14:35.884Z,1.40
2022-12-11T11:17:04.136Z,1.50
2022-12-11T11:19:37.086Z,1.60
2022-12-11T11:22:19.370Z,1.70
2022-12-11T11:24:59.256Z,1.70
2022-12-11T11:27:57.637Z,1.70
2022-12-11T11:30:37.049Z,1.70
2022-12-11T11:33:18.144Z,1.60
2022-12-11T11:36:28.225Z,1.60
2022-12-11T11:39:40.375Z,1.60
2022-12-11T11:42:32.172Z,1.50
2022-12-11T11:45:16.917Z,1.40
2022-12-11T11:48:30.196Z,1.50
2022-12-11T11:51:08.756Z,1.50
2022-12-11T11:53:41.794Z,1.50
2022-12-11T11:56:26.230Z,1.40
2022-12-11T11:59:30.003Z,1.50
2022-12-11T12:02:00.564Z,1.60
2022-12-11T12:04:36.987Z,1.50
2022-12-11T12:08:09.628Z,1.60
2022-12-11T12:11:26.600Z,1.70
2022-12-11T12:15:09.927Z,1.70
2022-12-11T12:17:56.103Z,1.60
2022-12-11T12:20:46.724Z,1.50
2022-12-11T12:24:03.316Z,1.50
2022-12-11T12:26:39.290Z,1.60
2022-12-11T12:29:46.833Z,1.60
2022-12-11T12:32:37.563Z,1.60
2022-12-11T12:35:38.890Z,1.60
2022-12-11T12:38:53.914Z,1.60
2022-12-11T12:41:56.183Z,1.70
2022-12-11T12:44:28.207Z,1.80
2022-12-11T12:47:10.490Z,1.90
2022-12-11T12:49:50.227Z,1.90
2022-12-11T12:52:47.795Z,1.90
2022-12-11T12:55:31.993Z,1.80
2022-12-11T12:58:07.465Z,1.60
2022-12-11T13:00:43.618Z,1.60
2022-12-11T13:03:22.481Z,1.50
2022-12-11T13:06:10.699Z,1.40
2022-12-11T13:08:49.272Z,1.50
2022-12-11T13:11:30.441Z,1.50
2022-12-11T13:14:33.830Z,1.50
2022-12-11T13:17:22.373Z,1.50
2022-12-11T13:20:24.631Z,1.40
2022-12-11T13:23:07.164Z,1.40
2022-12-11T13:26:02.079Z,1.40
2022-12-11T13:28:51.114Z,1.40
2022-12-11T13:31:20.974Z,1.40
2022-12-11T13:33:56.589Z,1.40
2022-12-11T13:36:37.854Z,1.40
2022-12-11T13:39:31.360Z,1.50
2022-12-11T13:42:11.838Z,1.50
2022-12-11T13:44:50.106Z,1.40
2022-12-11T13:47:26.622Z,1.40
2022-12-11T13:50:26.246Z,1.40
2022-12-11T13:53:04.949Z,1.40
2022-12-11T13:55:35.766Z,1.30
2022-12-11T13:58:03.553Z,1.30
2022-12-11T14:00:33.527Z,1.40
2022-12-11T14:03:09.511Z,1.50
2022-12-11T14:05:44.132Z,1.50
2022-12-11T14:08:27.438Z,1.50
2022-12-11T14:10:55.723Z,1.40
2022-12-11T14:13:40.436Z,1.50
2022-12-11T14:16:21.328Z,1.50
2022-12-11T14:18:53.620Z,1.40
2022-12-11T14:21:25.836Z,1.40
2022-12-11T14:24:03.680Z,1.40
2022-12-11T14:26:39.738Z,1.40
2022-12-11T14:29:07.827Z,1.40
2022-12-11T14:31:44.442Z,1.30
2022-12-11T14:34:36.692Z,1.30
2022-12-11T14:37:08.285Z,1.30
2022-12-11T14:39:53.785Z,1.30
2022-12-11T14:42:46.699Z,1.30
2022-12-11T14:45:41.856Z,1.20
2022-12-11T14:48:27.949Z,1.20
2022-12-11T14:51:04.303Z,1.20
2022-12-11T14:53:48.984Z,1.10
2022-12-11T14:56:29.271Z,1.20
2022-12-11T14:59:31.592Z,1.20
2022-12-11T15:02:31.164Z,1.20
2022-12-11T15:05:20.210Z,1.20
2022-12-11T15:08:10.933Z,1.10
2022-12-11T15:11:09.354Z,1.20
2022-12-11T15:14:00.423Z,1.20
2022-12-11T15:16:37.615Z,1.20
2022-12-11T15:19:06.512Z,1.20
2022-12-11T15:21:38.152Z,1.20
2022-12-11T15:24:07.161Z,1.20
2022-12-11T15:26:41.427Z,1.20
2022-12-11T15:29:40.090Z,1.20
2022-12-11T15:32:19.081Z,1.20
2022-12-11T15:34:58.073Z,1.10
2022-12-11T15:37:36.649Z,1.20
2022-12-11T15:40:07.307Z,1.20
2022-12-11T15:42:42.575Z,1.20
2022-12-11T15:45:28.457Z,1.20
2022-12-11T15:47:57.500Z,1.20
2022-12-11T15:50:30.653Z,1.10
2022-12-11T15:52:59.003Z,1.10
2022-12-11T15:55:35.038Z,1.10
2022-12-11T15:58:15.579Z,1.10
2022-12-11T16:00:43.472Z,1.00
2022-12-11T16:03:20.414Z,1.00
2022-12-11T16:05:51.838Z,0.90
2022-12-11T16:08:24.822Z,0.90
2022-12-11T16:10:56.249Z,0.90
2022-12-11T16:13:24.312Z,0.80
2022-12-11T16:15:54.436Z,0.80
2022-12-11T16:18:24.654Z,0.80
2022-12-11T16:20:53.531Z,0.80
2022-12-11T16:23:21.483Z,0.80
2022-12-11T16:25:50.181Z,0.80
2022-12-11T16:28:21.298Z,0.80
2022-12-11T16:30:49.706Z,0.90
2022-12-11T16:33:18.027Z,0.80
2022-12-11T16:35:45.657Z,0.90
2022-12-11T16:38:13.667Z,0.80
2022-12-11T16:40:41.705Z,0.80
2022-12-11T16:43:10.056Z,0.80
2022-12-11T16:45:38.392Z,0.80
2022-12-11T16:48:06.622Z,0.80
2022-12-11T16:50:34.651Z,0.80
2022-12-11T16:53:02.921Z,0.80
2022-12-11T16:55:30.509Z,0.70
2022-12-11T16:57:57.995Z,0.80
2022-12-11T17:00:25.769Z,0.70
2022-12-11T17:02:53.722Z,0.80
2022-12-11T17:05:22.768Z,0.80
2022-12-11T17:07:50.946Z,0.80
2022-12-11T17:10:18.680Z,0.80
2022-12-11T17:12:46.288Z,0.80
2022-12-11T17:15:14.105Z,0.80
2022-12-11T17:17:47.518Z,0.80
2022-12-11T17:20:21.102Z,0.80
2022-12-11T17:22:53.462Z,0.70
2022-12-11T17:25:25.971Z,0.70
2022-12-11T17:27:58.646Z,0.70
2022-12-11T17:30:29.156Z,0.60
2022-12-11T17:33:14.266Z,0.60
2022-12-11T17:35:47.021Z,0.60
2022-12-11T17:38:23.969Z,0.60
2022-12-11T17:41:20.083Z,0.60
2022-12-11T17:43:53.811Z,0.60
2022-12-11T17:46:22.850Z,0.70
2022-12-11T17:49:01.632Z,0.70
2022-12-11T17:51:34.501Z,0.60
2022-12-11T17:54:10.812Z,0.60
2022-12-11T17:56:44.741Z,0.60
2022-12-11T17:59:16.617Z,0.60
2022-12-11T18:01:58.584Z,0.60
2022-12-11T18:04:28.896Z,0.60
2022-12-11T18:06:57.767Z,0.60
2022-12-11T18:09:28.463Z,0.60
2022-12-11T18:12:03.659Z,0.60
2022-12-11T18:14:35.312Z,0.60
2022-12-11T18:17:07.755Z,0.60
2022-12-11T18:19:42.876Z,0.60
2022-12-11T18:22:18.602Z,0.60
2022-12-11T18:24:47.778Z,0.60
2022-12-11T18:27:15.318Z,0.60
2022-12-11T18:29:43.014Z,0.60
2022-12-11T18:32:10.635Z,0.60
2022-12-11T18:34:38.266Z,0.70
2022-12-11T18:37:07.162Z,0.70
2022-12-11T18:39:35.303Z,0.70
2022-12-11T18:42:32.143Z,0.60
2022-12-11T18:44:58.222Z,0.60
2022-12-11T18:47:26.189Z,0.70
2022-12-11T18:49:54.135Z,0.60
2022-12-11T18:52:22.027Z,0.60
2022-12-11T18:54:51.187Z,0.60
2022-12-11T18:57:19.087Z,0.70
2022-12-11T18:59:51.048Z,0.70
2022-12-11T19:02:18.751Z,0.70
2022-12-11T19:04:46.762Z,0.70
2022-12-11T19:07:14.470Z,0.70
2022-12-11T19:09:47.540Z,0.70
2022-12-11T19:12:16.054Z,0.70
2022-12-11T19:14:43.658Z,0.70
2022-12-11T19:17:11.447Z,0.70
2022-12-11T19:19:39.695Z,0.60
2022-12-11T19:22:08.902Z,0.60
2022-12-11T19:24:37.170Z,0.70
2022-12-11T19:27:09.993Z,0.60
2022-12-11T19:29:41.373Z,0.60
2022-12-11T19:32:09.181Z,0.60
2022-12-11T19:34:38.590Z,0.60
2022-12-11T19:37:06.642Z,0.60
2022-12-11T19:39:34.451Z,0.60
2022-12-11T19:42:02.086Z,0.60
2022-12-11T19:44:29.681Z,0.60
2022-12-11T19:46:57.470Z,0.60
2022-12-11T19:49:25.758Z,0.70
2022-12-11T19:51:53.440Z,0.70
2022-12-11T19:54:21.053Z,0.70
2022-12-11T19:56:49.233Z,0.70
2022-12-11T19:59:19.072Z,0.70
2022-12-11T20:01:50.892Z,0.70
2022-12-11T20:04:20.046Z,0.70
2022-12-11T20:06:48.794Z,0.70
2022-12-11T20:09:18.194Z,0.70
2022-12-11T20:11:47.907Z,0.70
2022-12-11T20:14:26.393Z,0.70
2022-12-11T20:17:13.856Z,0.60
2022-12-11T20:19:42.965Z,0.60
2022-12-11T20:22:11.195Z,0.70
2022-12-11T20:24:39.046Z,0.60
2022-12-11T20:27:06.713Z,0.70
2022-12-11T20:29:34.406Z,0.70
2022-12-11T20:32:02.061Z,0.70
2022-12-11T20:34:29.813Z,0.70
2022-12-11T20:36:57.390Z,0.70
2022-12-11T20:39:25.017Z,0.60
2022-12-11T20:41:52.731Z,0.70
2022-12-11T20:44:20.896Z,0.60
2022-12-11T20:46:48.512Z,0.60
2022-12-11T20:49:16.603Z,0.60
2022-12-11T20:51:44.285Z,0.60
2022-12-11T20:54:12.728Z,0.60
2022-12-11T20:56:40.643Z,0.60
2022-12-11T20:59:08.367Z,0.60
2022-12-11T21:01:36.038Z,0.60
2022-12-11T21:04:04.068Z,0.60
2022-12-11T21:06:37.615Z,0.60
2022-12-11T21:09:19.434Z,0.60
2022-12-11T21:11:47.393Z,0.60
2022-12-11T21:14:18.418Z,0.50
2022-12-11T21:16:47.532Z,0.50
2022-12-11T21:19:17.231Z,0.50
2022-12-11T21:21:46.076Z,0.50
2022-12-11T21:24:29.153Z,0.60
2022-12-11T21:26:59.207Z,1.00
2022-12-11T21:29:29.521Z,1.00
2022-12-11T21:31:58.088Z,1.00
2022-12-11T21:34:26.112Z,1.00
2022-12-11T21:36:57.207Z,0.90
2022-12-11T21:39:28.782Z,0.90
2022-12-11T21:41:58.172Z,0.90
2022-12-11T21:45:31.441Z,1.00
2022-12-11T21:47:13.416Z,1.00
2022-12-11T21:49:41.032Z,1.00
2022-12-11T21:52:09.303Z,0.90
2022-12-11T21:54:39.851Z,0.90
2022-12-11T21:57:08.043Z,0.80
2022-12-11T21:59:36.286Z,0.70
2022-12-11T22:02:04.402Z,0.70
2022-12-11T22:04:32.608Z,0.60
2022-12-11T22:07:00.314Z,0.70
2022-12-11T22:09:27.927Z,0.70
2022-12-11T22:11:58.665Z,0.70
2022-12-11T22:14:26.867Z,0.70
2022-12-11T22:16:54.644Z,0.80
2022-12-11T22:19:22.408Z,0.80
2022-12-11T22:21:50.031Z,0.80
2022-12-11T22:24:17.968Z,0.80
2022-12-11T22:26:45.626Z,0.90
2022-12-11T22:29:13.597Z,0.90
2022-12-11T22:31:41.316Z,0.90
2022-12-11T22:34:09.033Z,0.90
2022-12-11T22:36:37.897Z,0.90
2022-12-11T22:39:05.472Z,1.00
2022-12-11T22:41:33.826Z,1.00
2022-12-11T22:44:01.560Z,1.10
2022-12-11T22:46:31.232Z,1.00
2022-12-11T22:49:02.189Z,1.00
2022-12-11T22:51:39.061Z,1.00
2022-12-11T22:54:08.067Z,1.00
2022-12-11T22:56:36.479Z,1.00
2022-12-11T22:59:05.791Z,1.20
2022-12-11T23:01:36.380Z,1.40
2022-12-11T23:04:05.327Z,1.40
2022-12-11T23:06:34.116Z,1.40
2022-12-11T23:09:03.145Z,1.30
2022-12-11T23:11:41.818Z,1.20
2022-12-11T23:14:19.214Z,1.10
2022-12-11T23:16:54.048Z,1.00
2022-12-11T23:19:32.886Z,0.90
2022-12-11T23:22:06.057Z,0.90
2022-12-11T23:24:58.818Z,0.90
2022-12-11T23:27:39.563Z,0.90
2022-12-11T23:30:25.929Z,0.90
2022-12-11T23:32:54.518Z,0.90
2022-12-11T23:35:30.799Z,0.90
2022-12-11T23:37:59.259Z,1.00
2022-12-11T23:40:27.825Z,1.60
2022-12-11T23:42:55.952Z,1.70
2022-12-11T23:45:23.958Z,1.60
2022-12-11T23:47:52.227Z,1.60
2022-12-11T23:50:24.032Z,1.50
2022-12-11T23:52:55.602Z,1.40
2022-12-11T23:55:25.548Z,1.20
2022-12-11T23:57:53.778Z,1.10
